sensor_id;sensor_type;location;lat;lon;timestamp;pressure;altitude;pressure_sealevel;temperature;humidity
20624;BME280;10471;42.736;23.346;2023-03-11T10:46:03;93644.66;;;14.19;92.82
20624;BME280;10471;42.736;23.346;2023-03-11T10:48:31;93640.16;;;14.35;94.18
20624;BME280;10471;42.736;23.346;2023-03-11T10:51:02;93642.03;;;14.34;88.38
20624;BME280;10471;42.736;23.346;2023-03-11T10:53:29;93653.84;;;14.37;92.27
20624;BME280;10471;42.736;23.346;2023-03-11T10:55:57;93653.34;;;14.46;94.54
20624;BME280;10471;42.736;23.346;2023-03-11T10:58:31;93661.56;;;14.42;96.37
20624;BME280;10471;42.736;23.346;2023-03-11T11:01:16;93664.75;;;14.20;86.22
20624;BME280;10471;42.736;23.346;2023-03-11T11:03:44;93692.31;;;13.91;88.09
20624;BME280;10471;42.736;23.346;2023-03-11T11:06:30;93695.81;;;13.56;95.78
20624;BME280;10471;42.736;23.346;2023-03-11T11:09:18;93658.41;;;13.07;100.00
20624;BME280;10471;42.736;23.346;2023-03-11T11:12:13;93656.84;;;12.82;100.00
20624;BME280;10471;42.736;23.346;2023-03-11T11:14:48;93664.44;;;12.83;100.00
20624;BME280;10471;42.736;23.346;2023-03-11T11:17:26;93659.31;;;12.87;100.00
20624;BME280;10471;42.736;23.346;2023-03-11T11:19:55;93653.25;;;12.98;100.00
20624;BME280;10471;42.736;23.346;2023-03-11T11:22:22;93647.16;;;13.21;100.00
20624;BME280;10471;42.736;23.346;2023-03-11T11:24:51;93642.06;;;13.40;100.00
20624;BME280;10471;42.736;23.346;2023-03-11T11:27:26;93643.53;;;13.65;100.00
20624;BME280;10471;42.736;23.346;2023-03-11T11:32:34;93626.16;;;14.34;96.83
20624;BME280;10471;42.736;23.346;2023-03-11T11:35:01;93619.75;;;14.66;85.72
20624;BME280;10471;42.736;23.346;2023-03-11T11:37:30;93604.25;;;14.83;84.45
20624;BME280;10471;42.736;23.346;2023-03-11T11:42:40;93598.25;;;14.86;80.19
20624;BME280;10471;42.736;23.346;2023-03-11T11:45:15;93596.53;;;14.94;79.14
20624;BME280;10471;42.736;23.346;2023-03-11T11:47:47;93587.91;;;14.81;77.19
20624;BME280;10471;42.736;23.346;2023-03-11T11:50:27;93583.88;;;14.87;79.88
20624;BME280;10471;42.736;23.346;2023-03-11T11:53:03;93580.78;;;15.01;79.94
20624;BME280;10471;42.736;23.346;2023-03-11T11:55:30;93586.13;;;14.85;81.25
20624;BME280;10471;42.736;23.346;2023-03-11T11:57:56;93582.84;;;14.92;79.44
20624;BME280;10471;42.736;23.346;2023-03-11T12:00:31;93583.50;;;15.04;82.75
20624;BME280;10471;42.736;23.346;2023-03-11T12:05:57;93573.28;;;15.37;79.61
20624;BME280;10471;42.736;23.346;2023-03-11T12:11:58;93567.19;;;15.74;63.45
20624;BME280;10471;42.736;23.346;2023-03-11T12:16:55;93550.78;;;16.10;65.61
20624;BME280;10471;42.736;23.346;2023-03-11T12:19:35;93542.56;;;16.18;64.64
20624;BME280;10471;42.736;23.346;2023-03-11T12:27:41;93561.09;;;15.92;60.63
20624;BME280;10471;42.736;23.346;2023-03-11T12:30:14;93557.03;;;15.98;63.81
20624;BME280;10471;42.736;23.346;2023-03-11T12:32:49;93560.25;;;15.88;61.13
20624;BME280;10471;42.736;23.346;2023-03-11T12:37:44;93556.22;;;15.75;56.92
20624;BME280;10471;42.736;23.346;2023-03-11T12:45:55;93539.84;;;16.15;56.67
20624;BME280;10471;42.736;23.346;2023-03-11T12:50:52;93559.50;;;16.10;55.93
20624;BME280;10471;42.736;23.346;2023-03-11T12:53:19;93563.69;;;16.11;55.12
20624;BME280;10471;42.736;23.346;2023-03-11T12:56:12;93567.47;;;16.10;54.76
20624;BME280;10471;42.736;23.346;2023-03-11T13:04:27;93579.84;;;15.62;55.91
20624;BME280;10471;42.736;23.346;2023-03-11T13:07:40;93593.38;;;15.38;56.50
20624;BME280;10471;42.736;23.346;2023-03-11T13:09:40;93589.75;;;15.27;58.88
20624;BME280;10471;42.736;23.346;2023-03-11T13:17:56;93653.28;;;14.89;63.70
20624;BME280;10471;42.736;23.346;2023-03-11T13:23:20;93672.25;;;12.56;100.00
20624;BME280;10471;42.736;23.346;2023-03-11T13:33:54;93696.72;;;10.90;100.00
20624;BME280;10471;42.736;23.346;2023-03-11T13:36:38;93704.69;;;10.73;100.00
20624;BME280;10471;42.736;23.346;2023-03-11T13:41:54;93734.19;;;10.96;100.00
20624;BME280;10471;42.736;23.346;2023-03-11T13:46:59;93729.53;;;11.01;100.00
20624;BME280;10471;42.736;23.346;2023-03-11T13:49:41;93729.06;;;10.99;100.00
20624;BME280;10471;42.736;23.346;2023-03-11T13:52:13;93733.25;;;11.00;100.00
20624;BME280;10471;42.736;23.346;2023-03-11T13:57:22;93711.16;;;10.84;100.00
20624;BME280;10471;42.736;23.346;2023-03-11T13:59:54;93704.16;;;10.88;100.00
20624;BME280;10471;42.736;23.346;2023-03-11T14:02:23;93694.03;;;10.99;100.00
20624;BME280;10471;42.736;23.346;2023-03-11T14:04:57;93691.63;;;11.14;100.00
20624;BME280;10471;42.736;23.346;2023-03-11T14:07:31;93699.47;;;11.22;100.00
20624;BME280;10471;42.736;23.346;2023-03-11T14:12:36;93706.31;;;11.44;100.00
20624;BME280;10471;42.736;23.346;2023-03-11T14:15:04;93710.50;;;11.45;100.00
20624;BME280;10471;42.736;23.346;2023-03-11T14:17:31;93717.16;;;11.51;100.00
20624;BME280;10471;42.736;23.346;2023-03-11T14:22:43;93730.31;;;11.79;100.00
20624;BME280;10471;42.736;23.346;2023-03-11T14:25:23;93724.13;;;11.76;100.00
20624;BME280;10471;42.736;23.346;2023-03-11T14:28:01;93734.88;;;11.71;100.00
20624;BME280;10471;42.736;23.346;2023-03-11T14:30:29;93729.16;;;11.69;100.00
20624;BME280;10471;42.736;23.346;2023-03-11T14:35:25;93728.97;;;11.74;100.00
20624;BME280;10471;42.736;23.346;2023-03-11T14:37:51;93722.69;;;11.78;100.00
20624;BME280;10471;42.736;23.346;2023-03-11T14:42:50;93734.44;;;11.69;100.00
20624;BME280;10471;42.736;23.346;2023-03-11T14:45:20;93751.69;;;11.66;100.00
20624;BME280;10471;42.736;23.346;2023-03-11T14:48:11;93739.72;;;11.69;100.00
20624;BME280;10471;42.736;23.346;2023-03-11T14:50:39;93749.34;;;11.65;100.00
20624;BME280;10471;42.736;23.346;2023-03-11T14:58:35;93773.94;;;11.48;100.00
20624;BME280;10471;42.736;23.346;2023-03-11T15:01:15;93775.03;;;11.47;100.00
20624;BME280;10471;42.736;23.346;2023-03-11T15:03:52;93782.19;;;11.47;100.00
20624;BME280;10471;42.736;23.346;2023-03-11T15:06:25;93793.81;;;11.46;100.00
20624;BME280;10471;42.736;23.346;2023-03-11T15:08:59;93793.72;;;11.34;100.00
20624;BME280;10471;42.736;23.346;2023-03-11T15:11:26;93815.66;;;11.17;100.00
20624;BME280;10471;42.736;23.346;2023-03-11T15:13:53;93815.41;;;11.02;100.00
20624;BME280;10471;42.736;23.346;2023-03-11T15:16:36;93823.03;;;10.95;100.00
20624;BME280;10471;42.736;23.346;2023-03-11T15:21:48;93839.06;;;10.56;100.00
20624;BME280;10471;42.736;23.346;2023-03-11T15:24:20;93838.47;;;10.43;100.00
20624;BME280;10471;42.736;23.346;2023-03-11T15:29:19;93852.88;;;10.20;100.00
20624;BME280;10471;42.736;23.346;2023-03-11T15:31:45;93848.38;;;10.12;100.00
20624;BME280;10471;42.736;23.346;2023-03-11T15:44:35;93869.63;;;9.68;100.00
20624;BME280;10471;42.736;23.346;2023-03-11T15:47:02;93881.09;;;9.64;100.00
20624;BME280;10471;42.736;23.346;2023-03-11T15:49:28;93875.34;;;9.62;100.00
20624;BME280;10471;42.736;23.346;2023-03-11T15:52:01;93883.81;;;9.50;100.00
20624;BME280;10471;42.736;23.346;2023-03-11T15:54:27;93894.00;;;9.43;100.00
20624;BME280;10471;42.736;23.346;2023-03-11T15:56:53;93899.41;;;9.38;100.00
20624;BME280;10471;42.736;23.346;2023-03-11T15:59:19;93913.75;;;9.32;100.00
20624;BME280;10471;42.736;23.346;2023-03-11T16:01:45;93912.59;;;9.16;100.00
20624;BME280;10471;42.736;23.346;2023-03-11T16:04:16;93922.88;;;9.05;100.00
20624;BME280;10471;42.736;23.346;2023-03-11T16:06:43;93925.91;;;8.98;100.00
20624;BME280;10471;42.736;23.346;2023-03-11T16:09:10;93937.75;;;8.87;100.00
20624;BME280;10471;42.736;23.346;2023-03-11T16:11:36;93942.47;;;8.77;100.00
20624;BME280;10471;42.736;23.346;2023-03-11T16:14:05;93953.75;;;8.77;100.00
20624;BME280;10471;42.736;23.346;2023-03-11T16:16:30;93951.84;;;8.69;100.00
20624;BME280;10471;42.736;23.346;2023-03-11T16:18:56;93966.19;;;8.50;100.00
20624;BME280;10471;42.736;23.346;2023-03-11T16:21:24;93979.97;;;8.34;100.00
20624;BME280;10471;42.736;23.346;2023-03-11T16:23:51;93982.72;;;8.15;100.00
20624;BME280;10471;42.736;23.346;2023-03-11T16:26:17;93996.66;;;7.97;100.00
20624;BME280;10471;42.736;23.346;2023-03-11T16:28:43;94001.25;;;7.79;100.00
20624;BME280;10471;42.736;23.346;2023-03-11T16:31:08;94010.56;;;7.58;100.00
20624;BME280;10471;42.736;23.346;2023-03-11T16:33:35;94033.91;;;7.41;100.00
20624;BME280;10471;42.736;23.346;2023-03-11T16:36:01;94037.38;;;7.23;100.00
20624;BME280;10471;42.736;23.346;2023-03-11T16:38:29;94037.09;;;7.06;100.00
20624;BME280;10471;42.736;23.346;2023-03-11T16:40:57;94056.28;;;7.02;100.00
20624;BME280;10471;42.736;23.346;2023-03-11T16:43:23;94056.16;;;6.93;100.00
20624;BME280;10471;42.736;23.346;2023-03-11T16:45:48;94059.91;;;6.87;100.00
20624;BME280;10471;42.736;23.346;2023-03-11T16:48:14;94074.41;;;6.80;100.00
20624;BME280;10471;42.736;23.346;2023-03-11T16:50:39;94077.97;;;6.70;100.00
20624;BME280;10471;42.736;23.346;2023-03-11T16:53:05;94073.56;;;6.66;100.00
20624;BME280;10471;42.736;23.346;2023-03-11T16:55:30;94087.28;;;6.58;100.00
20624;BME280;10471;42.736;23.346;2023-03-11T16:57:55;94094.13;;;6.54;100.00
20624;BME280;10471;42.736;23.346;2023-03-11T17:00:21;94097.53;;;6.54;100.00
20624;BME280;10471;42.736;23.346;2023-03-11T17:02:47;94104.41;;;6.51;100.00
20624;BME280;10471;42.736;23.346;2023-03-11T17:05:12;94117.47;;;6.51;100.00
20624;BME280;10471;42.736;23.346;2023-03-11T17:07:38;94136.06;;;6.49;100.00
20624;BME280;10471;42.736;23.346;2023-03-11T17:10:04;94145.28;;;6.42;100.00
20624;BME280;10471;42.736;23.346;2023-03-11T17:12:29;94139.66;;;6.35;100.00
20624;BME280;10471;42.736;23.346;2023-03-11T17:14:55;94159.78;;;6.34;100.00
20624;BME280;10471;42.736;23.346;2023-03-11T17:17:21;94158.44;;;6.37;100.00
20624;BME280;10471;42.736;23.346;2023-03-11T17:19:46;94164.28;;;6.29;100.00
20624;BME280;10471;42.736;23.346;2023-03-11T17:22:12;94175.81;;;6.28;100.00
20624;BME280;10471;42.736;23.346;2023-03-11T17:24:38;94176.19;;;6.16;100.00
20624;BME280;10471;42.736;23.346;2023-03-11T17:27:04;94202.59;;;6.15;100.00
20624;BME280;10471;42.736;23.346;2023-03-11T17:29:29;94201.13;;;6.09;100.00
20624;BME280;10471;42.736;23.346;2023-03-11T17:31:55;94202.69;;;6.05;100.00
20624;BME280;10471;42.736;23.346;2023-03-11T17:34:21;94209.59;;;5.96;100.00
20624;BME280;10471;42.736;23.346;2023-03-11T17:36:47;94226.03;;;5.96;100.00
20624;BME280;10471;42.736;23.346;2023-03-11T17:39:12;94228.41;;;5.98;100.00
20624;BME280;10471;42.736;23.346;2023-03-11T17:41:38;94246.22;;;5.91;100.00
20624;BME280;10471;42.736;23.346;2023-03-11T17:44:03;94247.81;;;5.87;100.00
20624;BME280;10471;42.736;23.346;2023-03-11T17:46:29;94251.72;;;5.89;100.00
20624;BME280;10471;42.736;23.346;2023-03-11T17:48:55;94256.22;;;5.79;100.00
20624;BME280;10471;42.736;23.346;2023-03-11T17:51:22;94262.56;;;5.68;100.00
20624;BME280;10471;42.736;23.346;2023-03-11T17:53:48;94286.38;;;5.62;100.00
20624;BME280;10471;42.736;23.346;2023-03-11T17:56:16;94276.22;;;5.60;100.00
20624;BME280;10471;42.736;23.346;2023-03-11T17:58:45;94289.28;;;5.60;100.00
20624;BME280;10471;42.736;23.346;2023-03-11T18:01:21;94296.59;;;5.58;100.00
20624;BME280;10471;42.736;23.346;2023-03-11T18:03:48;94302.88;;;5.52;100.00
20624;BME280;10471;42.736;23.346;2023-03-11T18:06:14;94300.09;;;5.44;100.00
20624;BME280;10471;42.736;23.346;2023-03-11T18:08:41;94291.19;;;5.45;100.00
20624;BME280;10471;42.736;23.346;2023-03-11T18:11:09;94301.88;;;5.48;100.00
20624;BME280;10471;42.736;23.346;2023-03-11T18:13:36;94303.47;;;5.44;100.00
20624;BME280;10471;42.736;23.346;2023-03-11T18:16:07;94320.22;;;5.38;100.00
20624;BME280;10471;42.736;23.346;2023-03-11T18:18:34;94324.94;;;5.36;100.00
20624;BME280;10471;42.736;23.346;2023-03-11T18:21:02;94322.81;;;5.38;100.00
20624;BME280;10471;42.736;23.346;2023-03-11T18:23:31;94329.09;;;5.37;100.00
20624;BME280;10471;42.736;23.346;2023-03-11T18:26:05;94330.69;;;5.33;100.00
20624;BME280;10471;42.736;23.346;2023-03-11T18:28:31;94343.75;;;5.28;100.00
20624;BME280;10471;42.736;23.346;2023-03-11T18:31:17;94342.19;;;5.27;100.00
20624;BME280;10471;42.736;23.346;2023-03-11T18:33:49;94344.81;;;5.22;100.00
20624;BME280;10471;42.736;23.346;2023-03-11T18:38:43;94345.16;;;5.06;100.00
20624;BME280;10471;42.736;23.346;2023-03-11T18:41:09;94352.75;;;4.98;100.00
20624;BME280;10471;42.736;23.346;2023-03-11T18:43:35;94360.31;;;4.99;100.00
20624;BME280;10471;42.736;23.346;2023-03-11T18:46:05;94374.69;;;4.92;100.00
20624;BME280;10471;42.736;23.346;2023-03-11T18:48:31;94377.81;;;4.94;100.00
20624;BME280;10471;42.736;23.346;2023-03-11T18:50:56;94371.53;;;5.00;100.00
20624;BME280;10471;42.736;23.346;2023-03-11T18:53:21;94368.66;;;5.01;100.00
20624;BME280;10471;42.736;23.346;2023-03-11T18:55:50;94373.88;;;5.01;100.00
20624;BME280;10471;42.736;23.346;2023-03-11T18:58:16;94384.56;;;5.05;100.00
20624;BME280;10471;42.736;23.346;2023-03-11T19:00:41;94377.50;;;5.05;100.00
20624;BME280;10471;42.736;23.346;2023-03-11T19:03:09;94379.09;;;5.06;100.00
20624;BME280;10471;42.736;23.346;2023-03-11T19:05:35;94375.41;;;5.12;100.00
20624;BME280;10471;42.736;23.346;2023-03-11T19:08:00;94374.13;;;5.05;100.00
20624;BME280;10471;42.736;23.346;2023-03-11T19:10:26;94380.91;;;5.01;100.00
20624;BME280;10471;42.736;23.346;2023-03-11T19:12:51;94369.44;;;4.97;100.00
20624;BME280;10471;42.736;23.346;2023-03-11T19:15:17;94376.78;;;4.90;100.00
20624;BME280;10471;42.736;23.346;2023-03-11T19:17:42;94398.19;;;4.77;100.00
20624;BME280;10471;42.736;23.346;2023-03-11T19:20:08;94395.06;;;4.70;100.00
20624;BME280;10471;42.736;23.346;2023-03-11T19:22:35;94406.28;;;4.70;100.00
20624;BME280;10471;42.736;23.346;2023-03-11T19:25:01;94412.56;;;4.69;100.00
20624;BME280;10471;42.736;23.346;2023-03-11T19:27:29;94419.84;;;4.67;100.00
20624;BME280;10471;42.736;23.346;2023-03-11T19:29:54;94412.81;;;4.68;100.00
20624;BME280;10471;42.736;23.346;2023-03-11T19:32:20;94419.84;;;4.67;100.00
20624;BME280;10471;42.736;23.346;2023-03-11T19:34:45;94426.91;;;4.72;100.00
20624;BME280;10471;42.736;23.346;2023-03-11T19:37:11;94423.25;;;4.68;100.00
20624;BME280;10471;42.736;23.346;2023-03-11T19:39:36;94448.31;;;4.69;100.00
20624;BME280;10471;42.736;23.346;2023-03-11T19:42:02;94451.69;;;4.69;100.00
20624;BME280;10471;42.736;23.346;2023-03-11T19:44:27;94464.47;;;4.71;100.00
20624;BME280;10471;42.736;23.346;2023-03-11T19:46:53;94466.56;;;4.69;100.00
20624;BME280;10471;42.736;23.346;2023-03-11T19:49:18;94467.59;;;4.68;100.00
20624;BME280;10471;42.736;23.346;2023-03-11T19:51:43;94468.63;;;4.72;100.00
20624;BME280;10471;42.736;23.346;2023-03-11T19:54:10;94464.47;;;4.71;100.00
20624;BME280;10471;42.736;23.346;2023-03-11T19:56:35;94466.56;;;4.74;100.00
20624;BME280;10471;42.736;23.346;2023-03-11T19:59:01;94484.56;;;4.75;100.00
20624;BME280;10471;42.736;23.346;2023-03-11T20:01:26;94479.34;;;4.75;100.00
20624;BME280;10471;42.736;23.346;2023-03-11T20:03:54;94491.34;;;4.71;100.00
20624;BME280;10471;42.736;23.346;2023-03-11T20:06:20;94492.13;;;4.77;100.00
20624;BME280;10471;42.736;23.346;2023-03-11T20:08:47;94487.16;;;4.70;100.00
20624;BME280;10471;42.736;23.346;2023-03-11T20:11:12;94491.09;;;4.68;100.00
20624;BME280;10471;42.736;23.346;2023-03-11T20:13:38;94498.91;;;4.68;100.00
20624;BME280;10471;42.736;23.346;2023-03-11T20:16:12;94504.38;;;4.66;100.00
20624;BME280;10471;42.736;23.346;2023-03-11T20:18:37;94512.97;;;4.67;100.00
20624;BME280;10471;42.736;23.346;2023-03-11T20:21:09;94515.06;;;4.65;100.00
20624;BME280;10471;42.736;23.346;2023-03-11T20:23:36;94517.94;;;4.63;100.00
20624;BME280;10471;42.736;23.346;2023-03-11T20:26:06;94514.00;;;4.61;100.00
20624;BME280;10471;42.736;23.346;2023-03-11T20:28:32;94532.81;;;4.58;100.00
20624;BME280;10471;42.736;23.346;2023-03-11T20:30:58;94523.91;;;4.59;100.00
20624;BME280;10471;42.736;23.346;2023-03-11T20:33:23;94524.72;;;4.54;100.00
20624;BME280;10471;42.736;23.346;2023-03-11T20:35:48;94529.66;;;4.56;100.00
20624;BME280;10471;42.736;23.346;2023-03-11T20:38:14;94533.03;;;4.52;100.00
20624;BME280;10471;42.736;23.346;2023-03-11T20:40:39;94536.44;;;4.52;100.00
20624;BME280;10471;42.736;23.346;2023-03-11T20:43:05;94547.38;;;4.49;100.00
20624;BME280;10471;42.736;23.346;2023-03-11T20:45:30;94541.38;;;4.49;100.00
20624;BME280;10471;42.736;23.346;2023-03-11T20:47:56;94560.41;;;4.44;100.00
20624;BME280;10471;42.736;23.346;2023-03-11T20:50:22;94554.41;;;4.44;100.00
20624;BME280;10471;42.736;23.346;2023-03-11T20:52:48;94550.50;;;4.41;100.00
20624;BME280;10471;42.736;23.346;2023-03-11T20:55:14;94555.72;;;4.41;100.00
20624;BME280;10471;42.736;23.346;2023-03-11T20:57:39;94547.88;;;4.36;100.00
20624;BME280;10471;42.736;23.346;2023-03-11T21:00:07;94558.81;;;4.33;100.00
20624;BME280;10471;42.736;23.346;2023-03-11T21:02:35;94566.13;;;4.31;100.00
20624;BME280;10471;42.736;23.346;2023-03-11T21:05:01;94557.75;;;4.29;100.00
20624;BME280;10471;42.736;23.346;2023-03-11T21:07:27;94566.59;;;4.28;100.00
20624;BME280;10471;42.736;23.346;2023-03-11T21:09:52;94564.53;;;4.25;100.00
20624;BME280;10471;42.736;23.346;2023-03-11T21:12:20;94565.06;;;4.22;100.00
20624;BME280;10471;42.736;23.346;2023-03-11T21:14:45;94569.72;;;4.20;100.00
20624;BME280;10471;42.736;23.346;2023-03-11T21:17:10;94570.75;;;4.19;100.00
20624;BME280;10471;42.736;23.346;2023-03-11T21:19:36;94566.06;;;4.11;100.00
20624;BME280;10471;42.736;23.346;2023-03-11T21:22:01;94596.81;;;4.14;100.00
20624;BME280;10471;42.736;23.346;2023-03-11T21:24:26;94591.56;;;4.09;100.00
20624;BME280;10471;42.736;23.346;2023-03-11T21:26:52;94587.66;;;4.07;100.00
20624;BME280;10471;42.736;23.346;2023-03-11T21:29:17;94593.13;;;4.05;100.00
20624;BME280;10471;42.736;23.346;2023-03-11T21:31:43;94600.41;;;4.03;100.00
20624;BME280;10471;42.736;23.346;2023-03-11T21:34:09;94611.34;;;4.00;100.00
20624;BME280;10471;42.736;23.346;2023-03-11T21:36:35;94598.28;;;3.95;100.00
20624;BME280;10471;42.736;23.346;2023-03-11T21:39:02;94605.81;;;3.92;100.00
20624;BME280;10471;42.736;23.346;2023-03-11T21:41:28;94601.88;;;3.85;100.00
20624;BME280;10471;42.736;23.346;2023-03-11T21:43:54;94601.34;;;3.88;100.00
20624;BME280;10471;42.736;23.346;2023-03-11T21:46:22;94602.16;;;3.88;100.00
20624;BME280;10471;42.736;23.346;2023-03-11T21:48:48;94600.88;;;3.90;100.00
20624;BME280;10471;42.736;23.346;2023-03-11T21:51:16;94617.00;;;3.88;100.00
20624;BME280;10471;42.736;23.346;2023-03-11T21:53:42;94625.59;;;3.88;100.00
20624;BME280;10471;42.736;23.346;2023-03-11T21:56:08;94629.50;;;3.86;100.00
20624;BME280;10471;42.736;23.346;2023-03-11T21:58:34;94631.56;;;3.84;100.00
20624;BME280;10471;42.736;23.346;2023-03-11T22:01:00;94636.22;;;3.82;100.00
20624;BME280;10471;42.736;23.346;2023-03-11T22:03:25;94638.84;;;3.82;100.00
20624;BME280;10471;42.736;23.346;2023-03-11T22:05:57;94650.06;;;3.82;100.00
20624;BME280;10471;42.736;23.346;2023-03-11T22:08:24;94639.88;;;3.76;100.00
20624;BME280;10471;42.736;23.346;2023-03-11T22:10:50;94626.28;;;3.74;100.00
20624;BME280;10471;42.736;23.346;2023-03-11T22:13:15;94626.75;;;3.66;100.00
20624;BME280;10471;42.736;23.346;2023-03-11T22:15:40;94625.16;;;3.60;100.00
20624;BME280;10471;42.736;23.346;2023-03-11T22:18:06;94627.78;;;3.60;100.00
20624;BME280;10471;42.736;23.346;2023-03-11T22:20:31;94634.50;;;3.56;100.00
20624;BME280;10471;42.736;23.346;2023-03-11T22:22:56;94615.22;;;3.57;100.00
20624;BME280;10471;42.736;23.346;2023-03-11T22:25:22;94629.78;;;3.53;100.00
20624;BME280;10471;42.736;23.346;2023-03-11T22:27:47;94640.22;;;3.53;100.00
20624;BME280;10471;42.736;23.346;2023-03-11T22:30:13;94655.84;;;3.53;100.00
20624;BME280;10471;42.736;23.346;2023-03-11T22:32:38;94650.63;;;3.53;100.00
20624;BME280;10471;42.736;23.346;2023-03-11T22:35:04;94666.75;;;3.50;100.00
20624;BME280;10471;42.736;23.346;2023-03-11T22:37:30;94665.66;;;3.46;100.00
20624;BME280;10471;42.736;23.346;2023-03-11T22:39:55;94670.38;;;3.49;100.00
20624;BME280;10471;42.736;23.346;2023-03-11T22:42:20;94669.28;;;3.45;100.00
20624;BME280;10471;42.736;23.346;2023-03-11T22:44:46;94682.06;;;3.41;100.00
20624;BME280;10471;42.736;23.346;2023-03-11T22:47:11;94678.63;;;3.41;100.00
20624;BME280;10471;42.736;23.346;2023-03-11T22:49:37;94682.28;;;3.40;100.00
20624;BME280;10471;42.736;23.346;2023-03-11T22:52:02;94683.28;;;3.34;100.00
20624;BME280;10471;42.736;23.346;2023-03-11T22:54:27;94692.91;;;3.33;100.00
20624;BME280;10471;42.736;23.346;2023-03-11T22:56:53;94694.19;;;3.31;100.00
20624;BME280;10471;42.736;23.346;2023-03-11T22:59:18;94689.47;;;3.28;100.00
20624;BME280;10471;42.736;23.346;2023-03-11T23:01:44;94697.41;;;3.17;100.00
20624;BME280;10471;42.736;23.346;2023-03-11T23:04:09;94692.41;;;3.10;100.00
20624;BME280;10471;42.736;23.346;2023-03-11T23:06:35;94689.28;;;3.08;100.00
20624;BME280;10471;42.736;23.346;2023-03-11T23:09:01;94683.25;;;3.03;100.00
20624;BME280;10471;42.736;23.346;2023-03-11T23:11:27;94682.41;;;2.97;100.00
20624;BME280;10471;42.736;23.346;2023-03-11T23:13:53;94677.88;;;2.88;100.00
20624;BME280;10471;42.736;23.346;2023-03-11T23:16:22;94682.78;;;2.84;100.00
20624;BME280;10471;42.736;23.346;2023-03-11T23:18:50;94686.81;;;2.70;100.00
20624;BME280;10471;42.736;23.346;2023-03-11T23:21:25;94686.75;;;2.65;100.00
20624;BME280;10471;42.736;23.346;2023-03-11T23:23:51;94695.56;;;2.64;100.00
20624;BME280;10471;42.736;23.346;2023-03-11T23:26:17;94687.78;;;2.64;100.00
20624;BME280;10471;42.736;23.346;2023-03-11T23:28:43;94704.34;;;2.58;100.00
20624;BME280;10471;42.736;23.346;2023-03-11T23:31:11;94700.72;;;2.59;100.00
20624;BME280;10471;42.736;23.346;2023-03-11T23:33:37;94697.56;;;2.58;100.00
20624;BME280;10471;42.736;23.346;2023-03-11T23:36:05;94701.97;;;2.57;100.00
20624;BME280;10471;42.736;23.346;2023-03-11T23:38:32;94701.97;;;2.57;100.00
20624;BME280;10471;42.736;23.346;2023-03-11T23:40:57;94713.66;;;2.55;100.00
20624;BME280;10471;42.736;23.346;2023-03-11T23:43:24;94727.22;;;2.57;100.00
20624;BME280;10471;42.736;23.346;2023-03-11T23:45:50;94719.94;;;2.58;100.00
20624;BME280;10471;42.736;23.346;2023-03-11T23:48:16;94718.06;;;2.54;100.00
20624;BME280;10471;42.736;23.346;2023-03-11T23:50:45;94716.81;;;2.57;100.00
20624;BME280;10471;42.736;23.346;2023-03-11T23:53:11;94725.63;;;2.56;100.00
20624;BME280;10471;42.736;23.346;2023-03-11T23:55:37;94727.22;;;2.57;100.00
20624;BME280;10471;42.736;23.346;2023-03-11T23:58:02;94724.06;;;2.55;100.00
